Time;durP1;ratioP1;P1;durP2;ratioP2;P2;SDS_P1;SDS_P2;PMS_P1;PMS_P2;Temp;Humidity;BMP_temperature;BMP_pressure;BME280_temperature;BME280_humidity;BME280_pressure;Samples;Min_cycle;Max_cycle;Signal;HPM_P1;HPM_P2
2022/08/29 00:01:10;;;;;;;;;;;;;;;19.09;54.16;98942.47;4916241;29;20399;-84
2022/08/29 00:03:37;;;;;;;;;;;;;;;19.09;54.13;98940.56;4914989;29;20391;-85
2022/08/29 00:06:06;;;;;;;;;;;;;;;19.11;54.15;98932.84;4915982;29;19977;-83
2022/08/29 00:08:33;;;;;;;;;;;;;;;19.15;53.88;98933.88;4916185;29;20411;-83
2022/08/29 00:11:00;;;;;;;;;;;;;;;19.17;54.00;98928.13;4898942;29;20017;-84
2022/08/29 00:13:27;;;;;;;;;;;;;;;19.21;53.87;98923.66;4916103;29;19931;-83
2022/08/29 00:15:54;;;;;;;;;;;;;;;19.24;53.66;98923.03;4915764;29;19954;-84
2022/08/29 00:18:21;;;;;;;;;;;;;;;19.26;53.57;98912.59;4915107;29;19999;-84
2022/08/29 00:20:48;;;;;;;;;;;;;;;19.30;53.49;98904.63;4915972;29;19939;-84
2022/08/29 00:23:15;;;;;;;;;;;;;;;19.31;53.48;98903.47;4916109;29;19931;-84
2022/08/29 00:25:42;;;;;;;;;;;;;;;19.30;53.42;98897.22;4899181;29;20318;-85
2022/08/29 00:28:09;;;;;;;;;;;;;;;19.30;53.23;98890.94;4917064;29;19974;-84
2022/08/29 00:30:36;;;;;;;;;;;;;;;19.27;53.42;98892.34;4901087;29;19971;-83
2022/08/29 00:33:03;;;;;;;;;;;;;;;19.27;53.43;98892.34;4900985;29;19931;-85
2022/08/29 00:35:31;;;;;;;;;;;;;;;19.25;53.52;98891.84;4917528;29;20299;-85
2022/08/29 00:37:59;;;;;;;;;;;;;;;19.26;53.31;98883.31;4902186;29;19981;-84
2022/08/29 00:40:28;;;;;;;;;;;;;;;19.24;53.31;98882.00;4935441;29;19931;-84
2022/08/29 00:42:56;;;;;;;;;;;;;;;19.22;53.47;98871.38;4935390;29;19985;-84
2022/08/29 00:45:23;;;;;;;;;;;;;;;19.20;53.55;98870.84;4934891;29;19982;-84
2022/08/29 00:47:57;;;;;;;;;;;;;;;19.22;53.60;98868.63;4917941;29;19977;-84
2022/08/29 00:50:28;;;;;;;;;;;;;;;19.20;53.57;98854.44;4934954;29;20417;-85
2022/08/29 00:52:56;;;;;;;;;;;;;;;19.21;53.66;98858.78;4936163;29;19966;-83
2022/08/29 00:55:24;;;;;;;;;;;;;;;19.21;53.66;98852.50;4934778;29;20029;-85
2022/08/29 00:57:53;;;;;;;;;;;;;;;19.18;53.64;98848.47;4902530;29;19992;-83
2022/08/29 01:00:20;;;;;;;;;;;;;;;19.19;53.64;98847.38;4933571;29;19995;-84
2022/08/29 01:02:47;;;;;;;;;;;;;;;19.19;53.53;98846.53;4934439;29;19931;-85
2022/08/29 01:05:15;;;;;;;;;;;;;;;19.15;53.53;98834.59;4933448;29;19989;-85
2022/08/29 01:07:43;;;;;;;;;;;;;;;19.14;53.54;98828.31;4933284;29;19970;-84
2022/08/29 01:12:14;;;;;;;;;;;;;;;19.15;53.55;98827.19;4917718;29;20025;-84
2022/08/29 01:12:58;;;;;;;;;;;;;;;19.17;53.42;98827.72;4917100;29;19938;-85
2022/08/29 01:15:25;;;;;;;;;;;;;;;19.18;53.19;98817.56;4917640;29;20405;-84
2022/08/29 01:17:51;;;;;;;;;;;;;;;19.23;53.12;98821.00;4934581;29;19935;-85
2022/08/29 01:20:42;;;;;;;;;;;;;;;19.27;53.13;98807.53;4941102;29;19950;-83
2022/08/29 01:23:13;;;;;;;;;;;;;;;19.27;53.11;98811.09;4934332;29;20365;-85
2022/08/29 01:25:43;;;;;;;;;;;;;;;19.24;53.19;98814.44;4934460;29;19938;-84
2022/08/29 01:28:11;;;;;;;;;;;;;;;19.20;53.28;98804.41;4917586;29;19931;-85
2022/08/29 01:30:56;;;;;;;;;;;;;;;19.22;53.27;98807.66;4934423;29;20355;-85
2022/08/29 01:33:23;;;;;;;;;;;;;;;19.28;53.02;98806.41;4934320;29;20294;-85
2022/08/29 01:35:51;;;;;;;;;;;;;;;19.30;52.96;98798.72;4933857;29;19931;-85
2022/08/29 01:38:26;;;;;;;;;;;;;;;19.29;52.77;98802.56;4934169;29;19934;-84
2022/08/29 01:40:54;;;;;;;;;;;;;;;19.32;52.84;98791.00;4934141;29;19931;-85
2022/08/29 01:43:21;;;;;;;;;;;;;;;19.40;52.47;98789.47;4934157;29;19931;-84
2022/08/29 01:45:49;;;;;;;;;;;;;;;19.42;52.20;98809.09;4933949;29;19931;-84
2022/08/29 01:48:16;;;;;;;;;;;;;;;19.42;52.14;98795.44;4934155;29;19930;-85
2022/08/29 01:50:43;;;;;;;;;;;;;;;19.35;52.28;98798.59;4917597;29;20390;-84
2022/08/29 01:53:11;;;;;;;;;;;;;;;19.30;52.26;98792.44;4938244;29;19945;-85
2022/08/29 01:55:39;;;;;;;;;;;;;;;19.24;52.49;98799.94;4937472;29;19935;-83
2022/08/29 01:58:06;;;;;;;;;;;;;;;19.18;52.58;98798.44;4937324;29;19931;-84
2022/08/29 02:00:34;;;;;;;;;;;;;;;19.11;52.67;98795.28;4937423;29;19962;-84
2022/08/29 02:03:02;;;;;;;;;;;;;;;19.04;52.86;98790.22;4936853;29;19931;-84
2022/08/29 02:05:29;;;;;;;;;;;;;;;18.99;53.01;98784.84;4937339;29;20409;-84
2022/08/29 02:07:56;;;;;;;;;;;;;;;18.99;53.01;98780.22;4935926;29;20486;-84
2022/08/29 02:10:23;;;;;;;;;;;;;;;18.99;52.90;98773.91;4920431;29;19931;-84
2022/08/29 02:12:52;;;;;;;;;;;;;;;19.01;52.92;98768.97;4920393;29;19935;-84
2022/08/29 02:15:19;;;;;;;;;;;;;;;19.02;53.10;98765.94;4937110;29;20386;-85
2022/08/29 02:17:47;;;;;;;;;;;;;;;18.99;53.14;98755.63;4935875;29;19938;-84
2022/08/29 02:20:14;;;;;;;;;;;;;;;18.96;53.30;98756.19;4936949;29;19931;-85
2022/08/29 02:22:41;;;;;;;;;;;;;;;18.93;53.33;98754.09;4936903;29;20018;-85
2022/08/29 02:28:05;;;;;;;;;;;;;;;18.88;53.35;98748.72;4935450;29;19942;-84
2022/08/29 02:30:32;;;;;;;;;;;;;;;18.90;53.27;98740.22;4920051;29;20365;-84
2022/08/29 02:32:59;;;;;;;;;;;;;;;18.89;53.21;98728.50;4936678;29;19935;-84
2022/08/29 02:35:29;;;;;;;;;;;;;;;18.92;53.14;98719.66;4935708;29;19931;-83
2022/08/29 02:38:02;;;;;;;;;;;;;;;19.00;52.76;98729.06;4905879;29;19935;-84
2022/08/29 02:40:28;;;;;;;;;;;;;;;19.05;52.71;98737.16;4936795;29;19931;-82
2022/08/29 02:42:57;;;;;;;;;;;;;;;19.11;52.47;98740.59;4936481;29;19931;-85
2022/08/29 02:45:24;;;;;;;;;;;;;;;19.12;52.47;98736.75;4936727;29;20390;-85
2022/08/29 02:47:51;;;;;;;;;;;;;;;19.10;52.55;98744.44;4936275;29;20406;-84
2022/08/29 02:50:18;;;;;;;;;;;;;;;19.07;52.66;98729.47;4936572;29;19937;-83
2022/08/29 02:52:45;;;;;;;;;;;;;;;19.07;52.64;98723.19;4919542;29;20037;-84
2022/08/29 02:55:14;;;;;;;;;;;;;;;19.08;52.70;98713.88;4936918;29;20010;-82
2022/08/29 02:57:41;;;;;;;;;;;;;;;19.10;52.76;98722.56;4936641;29;19957;-82
2022/08/29 03:00:14;;;;;;;;;;;;;;;19.09;52.70;98729.16;4936328;29;20030;-84
2022/08/29 03:02:41;;;;;;;;;;;;;;;19.12;52.77;98725.81;4918624;29;20294;-83
2022/08/29 03:05:09;;;;;;;;;;;;;;;19.14;52.71;98726.28;4935886;29;19930;-85
2022/08/29 03:07:36;;;;;;;;;;;;;;;19.17;52.39;98728.44;4935059;29;19931;-83
2022/08/29 03:10:22;;;;;;;;;;;;;;;19.18;52.47;98719.09;4934808;29;20501;-86
2022/08/29 03:12:48;;;;;;;;;;;;;;;19.21;52.33;98723.94;4935898;29;19970;-86
2022/08/29 03:15:16;;;;;;;;;;;;;;;19.21;52.33;98727.50;4936651;29;19937;-86
2022/08/29 03:17:44;;;;;;;;;;;;;;;19.23;52.30;98724.47;4936941;29;20329;-85
2022/08/29 03:20:11;;;;;;;;;;;;;;;19.25;52.14;98725.75;4936077;29;20401;-86
2022/08/29 03:22:38;;;;;;;;;;;;;;;19.24;52.01;98726.91;4936391;29;19974;-86
2022/08/29 03:25:05;;;;;;;;;;;;;;;19.23;52.13;98743.59;4935680;29;19931;-87
2022/08/29 03:27:33;;;;;;;;;;;;;;;19.23;52.07;98749.88;4936001;29;20229;-87
2022/08/29 03:30:05;;;;;;;;;;;;;;;19.26;52.09;98741.06;4935569;29;19934;-87
2022/08/29 03:32:32;;;;;;;;;;;;;;;19.27;52.18;98725.47;4934580;29;19974;-86
2022/08/29 03:34:59;;;;;;;;;;;;;;;19.30;51.86;98718.56;4918684;29;19931;-86
2022/08/29 03:37:26;;;;;;;;;;;;;;;19.32;52.13;98716.31;4918953;29;19930;-87
2022/08/29 03:39:53;;;;;;;;;;;;;;;19.32;52.13;98716.31;4935597;29;20037;-86
2022/08/29 03:42:20;;;;;;;;;;;;;;;19.37;52.04;98711.56;4935757;29;19931;-85
2022/08/29 03:44:47;;;;;;;;;;;;;;;19.48;51.68;98706.63;4918743;29;20547;-86
2022/08/29 03:47:14;;;;;;;;;;;;;;;19.58;51.47;98711.88;4934441;29;19930;-86
2022/08/29 03:49:41;;;;;;;;;;;;;;;19.66;51.35;98694.69;4936014;29;20457;-86
2022/08/29 03:52:08;;;;;;;;;;;;;;;19.74;51.33;98692.34;4936525;29;19937;-86
2022/08/29 03:55:00;;;;;;;;;;;;;;;19.74;51.33;98693.16;4929188;29;19986;-86
2022/08/29 03:57:27;;;;;;;;;;;;;;;19.73;51.29;98685.28;4919359;29;19931;-86
2022/08/29 03:59:56;;;;;;;;;;;;;;;19.67;51.44;98693.63;4934050;29;19973;-87
2022/08/29 04:02:24;;;;;;;;;;;;;;;19.66;51.62;98678.25;4936206;29;19931;-85
2022/08/29 04:05:06;;;;;;;;;;;;;;;19.71;51.54;98680.09;4934978;29;20103;-86
2022/08/29 04:07:38;;;;;;;;;;;;;;;19.78;51.37;98677.72;4921044;29;19931;-86
2022/08/29 04:10:06;;;;;;;;;;;;;;;19.84;51.20;98665.50;4902165;29;20394;-87
2022/08/29 04:12:34;;;;;;;;;;;;;;;19.89;50.95;98656.38;4935536;29;19938;-87
2022/08/29 04:15:01;;;;;;;;;;;;;;;19.94;50.81;98658.16;4901900;29;19934;-86
2022/08/29 04:17:29;;;;;;;;;;;;;;;19.94;50.87;98650.75;4935534;29;19938;-87
2022/08/29 04:19:56;;;;;;;;;;;;;;;20.01;50.77;98642.91;4934807;29;19930;-85
2022/08/29 04:22:23;;;;;;;;;;;;;;;20.07;50.50;98638.88;4918270;29;20022;-88
2022/08/29 04:24:51;;;;;;;;;;;;;;;20.10;50.55;98642.91;4933466;29;19937;-86
2022/08/29 04:27:18;;;;;;;;;;;;;;;20.16;50.53;98638.94;4918165;29;20393;-87
2022/08/29 04:29:57;;;;;;;;;;;;;;;20.21;50.32;98638.78;4885492;29;20456;-87
2022/08/29 04:32:24;;;;;;;;;;;;;;;20.29;50.17;98637.19;4918043;29;19930;-87
2022/08/29 04:34:54;;;;;;;;;;;;;;;20.37;49.86;98638.34;4928503;29;20390;-87
2022/08/29 04:37:21;;;;;;;;;;;;;;;20.42;49.83;98630.78;4918044;29;19950;-87
2022/08/29 04:39:48;;;;;;;;;;;;;;;20.48;49.72;98631.44;4934724;29;19935;-88
2022/08/29 04:42:16;;;;;;;;;;;;;;;20.52;49.54;98627.75;4934567;29;19981;-88
2022/08/29 04:44:47;;;;;;;;;;;;;;;20.62;49.36;98629.41;4895763;29;19978;-87
2022/08/29 04:47:21;;;;;;;;;;;;;;;20.74;49.20;98629.59;4899249;29;19931;-88
2022/08/29 04:49:52;;;;;;;;;;;;;;;20.92;48.88;98640.59;4915966;29;19939;-87
2022/08/29 04:52:23;;;;;;;;;;;;;;;21.09;48.47;98642.50;4915549;29;20306;-87
2022/08/29 04:55:07;;;;;;;;;;;;;;;21.20;48.39;98639.13;4910428;29;20037;-87
2022/08/29 04:57:37;;;;;;;;;;;;;;;21.20;48.27;98650.09;4904476;29;19931;-87
2022/08/29 05:00:05;;;;;;;;;;;;;;;21.19;48.51;98656.72;4915521;29;19998;-88
2022/08/29 05:02:33;;;;;;;;;;;;;;;21.15;48.34;98685.94;4899256;29;19931;-87
2022/08/29 05:05:00;;;;;;;;;;;;;;;21.07;48.07;98670.28;4915886;29;19972;-87
2022/08/29 05:07:28;;;;;;;;;;;;;;;21.05;48.02;98661.56;4930531;29;20065;-87
2022/08/29 05:09:59;;;;;;;;;;;;;;;21.05;47.96;98664.31;4917344;29;19931;-87
2022/08/29 05:12:29;;;;;;;;;;;;;;;21.15;47.57;98650.25;4586906;28;10000435;-85
2022/08/29 05:14:58;;;;;;;;;;;;;;;21.19;47.67;98643.00;4892516;29;19964;-87
2022/08/29 05:17:26;;;;;;;;;;;;;;;21.36;47.09;98653.16;4910456;29;20331;-88
2022/08/29 05:19:53;;;;;;;;;;;;;;;21.55;46.71;98635.56;4931107;29;19966;-87
2022/08/29 05:22:20;;;;;;;;;;;;;;;21.49;46.64;98632.19;4913733;29;20410;-88
2022/08/29 05:24:48;;;;;;;;;;;;;;;21.46;46.73;98641.06;4911020;29;20193;-88
2022/08/29 05:27:17;;;;;;;;;;;;;;;21.49;46.61;98637.66;4909126;29;20317;-87
2022/08/29 05:29:45;;;;;;;;;;;;;;;21.54;46.45;98644.94;4895314;29;19938;-88
2022/08/29 05:32:13;;;;;;;;;;;;;;;21.53;46.31;98668.84;4919461;29;20437;-87
2022/08/29 05:34:41;;;;;;;;;;;;;;;21.55;46.48;98655.59;4916215;29;19931;-87
2022/08/29 05:37:10;;;;;;;;;;;;;;;21.53;46.28;98627.66;4901637;29;20321;-88
2022/08/29 05:39:41;;;;;;;;;;;;;;;21.66;46.21;98639.59;4912716;29;19938;-87
2022/08/29 05:42:09;;;;;;;;;;;;;;;21.62;46.02;98635.88;4922415;29;19938;-88
2022/08/29 05:44:36;;;;;;;;;;;;;;;21.61;46.08;98629.56;4920542;29;20010;-88
2022/08/29 05:47:30;;;;;;;;;;;;;;;21.60;46.08;98630.72;4913964;29;19951;-87
2022/08/29 05:49:57;;;;;;;;;;;;;;;21.62;45.86;98633.13;4914223;29;19931;-85
2022/08/29 05:52:24;;;;;;;;;;;;;;;21.70;45.77;98623.25;4928465;29;19935;-89
2022/08/29 05:54:55;;;;;;;;;;;;;;;21.68;45.81;98615.34;4915847;29;20017;-87
2022/08/29 05:57:22;;;;;;;;;;;;;;;21.75;45.72;98628.56;4926529;29;19978;-84
2022/08/29 05:59:50;;;;;;;;;;;;;;;21.79;45.76;98624.84;4910705;29;19931;-87
2022/08/29 06:02:17;;;;;;;;;;;;;;;21.83;45.42;98638.75;4932082;29;19938;-90
2022/08/29 06:04:45;;;;;;;;;;;;;;;21.93;45.28;98634.84;4933944;29;20268;-86
2022/08/29 06:07:13;;;;;;;;;;;;;;;22.02;45.12;98630.91;4913552;29;20440;-85
2022/08/29 06:09:40;;;;;;;;;;;;;;;22.10;44.89;98633.94;4908501;29;19938;-88
2022/08/29 06:12:15;;;;;;;;;;;;;;;22.14;44.22;98634.91;4900139;29;20053;-85
2022/08/29 06:14:42;;;;;;;;;;;;;;;22.07;44.42;98635.41;4913586;29;19931;-86
2022/08/29 06:17:16;;;;;;;;;;;;;;;22.16;44.80;98624.41;4914541;29;19938;-85
2022/08/29 06:19:43;;;;;;;;;;;;;;;22.15;44.61;98609.81;4905065;29;20322;-86
2022/08/29 06:22:11;;;;;;;;;;;;;;;22.14;44.22;98604.69;4901751;29;19931;-85
2022/08/29 06:24:39;;;;;;;;;;;;;;;22.24;44.17;98618.06;4904180;29;19939;-85
2022/08/29 06:27:10;;;;;;;;;;;;;;;22.39;44.34;98617.50;4906713;29;19939;-87
2022/08/29 06:29:37;;;;;;;;;;;;;;;22.53;44.27;98622.75;4905500;29;19935;-84
2022/08/29 06:32:10;;;;;;;;;;;;;;;22.48;44.00;98621.03;4897249;29;20515;-83
2022/08/29 06:34:37;;;;;;;;;;;;;;;22.43;44.14;98621.22;4894457;29;19931;-84
2022/08/29 06:37:04;;;;;;;;;;;;;;;22.53;44.12;98627.44;4893273;29;19935;-84
2022/08/29 06:39:34;;;;;;;;;;;;;;;22.57;44.11;98615.47;4894130;29;19988;-86
2022/08/29 06:42:01;;;;;;;;;;;;;;;22.56;44.30;98618.53;4911489;29;19978;-85
2022/08/29 06:44:30;;;;;;;;;;;;;;;22.57;44.10;98606.41;4911345;29;19931;-85
2022/08/29 06:46:57;;;;;;;;;;;;;;;22.50;44.52;98620.66;4919624;29;19942;-88
2022/08/29 06:49:24;;;;;;;;;;;;;;;22.57;44.39;98612.72;4923129;29;19931;-88
2022/08/29 06:51:51;;;;;;;;;;;;;;;22.72;43.96;98625.06;4905605;29;19999;-88
2022/08/29 06:54:24;;;;;;;;;;;;;;;22.98;43.68;98624.91;4910520;29;20445;-85
2022/08/29 06:56:57;;;;;;;;;;;;;;;23.10;43.76;98615.91;4912562;29;19931;-90
2022/08/29 06:59:26;;;;;;;;;;;;;;;23.00;43.23;98610.81;4909904;29;19941;-88
2022/08/29 07:01:56;;;;;;;;;;;;;;;22.77;43.64;98613.88;4914207;29;19935;-89
2022/08/29 07:04:23;;;;;;;;;;;;;;;22.68;43.68;98624.91;4911543;29;20466;-86
2022/08/29 07:06:52;;;;;;;;;;;;;;;22.58;43.89;98622.56;4899882;29;19967;-85
2022/08/29 07:09:24;;;;;;;;;;;;;;;22.88;43.51;98617.00;4912762;29;19937;-88
2022/08/29 07:12:07;;;;;;;;;;;;;;;23.09;43.32;98604.09;4906328;29;19979;-88
2022/08/29 07:14:35;;;;;;;;;;;;;;;23.30;43.05;98609.56;4860957;29;19937;-87
2022/08/29 07:17:06;;;;;;;;;;;;;;;23.55;42.56;98612.41;4912477;29;19931;-87
2022/08/29 07:19:34;;;;;;;;;;;;;;;23.70;42.43;98608.19;4911483;29;20048;-90
2022/08/29 07:22:03;;;;;;;;;;;;;;;23.68;41.67;98611.28;4911171;29;19942;-87
2022/08/29 07:24:33;;;;;;;;;;;;;;;23.48;41.31;98620.41;4909075;29;19976;-87
2022/08/29 07:27:00;;;;;;;;;;;;;;;23.74;41.44;98612.69;4909734;29;19931;-87
2022/08/29 07:29:27;;;;;;;;;;;;;;;23.98;40.58;98613.91;4913404;29;20450;-87
2022/08/29 07:31:54;;;;;;;;;;;;;;;23.92;40.59;98618.00;4913080;29;19937;-86
2022/08/29 07:34:21;;;;;;;;;;;;;;;23.83;40.81;98604.34;4907846;29;19931;-85
2022/08/29 07:36:48;;;;;;;;;;;;;;;23.85;40.31;98604.81;4892316;29;20034;-86
2022/08/29 07:39:16;;;;;;;;;;;;;;;23.96;40.42;98611.47;4893255;29;19979;-86
2022/08/29 07:41:43;;;;;;;;;;;;;;;24.00;40.08;98612.41;4892287;29;19942;-86
2022/08/29 07:44:16;;;;;;;;;;;;;;;23.96;39.92;98608.72;4903932;29;19931;-87
2022/08/29 07:46:59;;;;;;;;;;;;;;;24.19;40.13;98620.09;4897809;29;20018;-85
2022/08/29 07:49:26;;;;;;;;;;;;;;;24.59;39.26;98615.88;4907564;29;19979;-88
2022/08/29 07:52:06;;;;;;;;;;;;;;;24.67;39.10;98611.38;4910223;29;19930;-89
2022/08/29 07:54:34;;;;;;;;;;;;;;;24.82;38.88;98614.22;4906780;29;19931;-87
2022/08/29 08:00:27;;;;;;;;;;;;;;;25.61;37.47;98616.47;4926019;29;19930;-88
2022/08/29 08:03:20;;;;;;;;;;;;;;;25.72;37.13;98609.25;4899617;29;19932;-87
2022/08/29 08:06:11;;;;;;;;;;;;;;;25.76;37.11;98614.88;4884514;29;19954;-87
2022/08/29 08:08:39;;;;;;;;;;;;;;;26.03;36.76;98609.66;4928103;29;19931;-88
2022/08/29 08:11:06;;;;;;;;;;;;;;;26.26;36.53;98607.06;4911933;29;20454;-89
2022/08/29 08:13:34;;;;;;;;;;;;;;;26.57;36.03;98600.69;4901049;29;20470;-88
2022/08/29 08:16:06;;;;;;;;;;;;;;;26.80;35.05;98603.59;4879164;29;20565;-89
2022/08/29 08:19:19;;;;;;;;;;;;;;;27.15;34.37;98603.53;4911433;29;19942;-88
2022/08/29 08:21:46;;;;;;;;;;;;;;;27.11;33.74;98599.88;4893884;29;19967;-88
2022/08/29 08:24:16;;;;;;;;;;;;;;;27.09;33.34;98591.13;4910664;29;19938;-87
2022/08/29 08:26:46;;;;;;;;;;;;;;;27.43;33.48;98602.53;4896828;29;20026;-87
2022/08/29 08:29:21;;;;;;;;;;;;;;;27.55;33.25;98596.81;4902752;29;19962;-87
2022/08/29 08:31:51;;;;;;;;;;;;;;;27.35;33.38;98598.00;4924538;29;20018;-87
2022/08/29 08:34:42;;;;;;;;;;;;;;;26.85;34.44;98605.28;4899078;29;19931;-85
2022/08/29 08:37:18;;;;;;;;;;;;;;;26.76;34.80;98614.59;4895497;29;19935;-88
2022/08/29 08:39:57;;;;;;;;;;;;;;;26.79;34.45;98608.31;4896220;29;19935;-88
2022/08/29 08:42:24;;;;;;;;;;;;;;;27.07;34.32;98607.31;4912807;29;19978;-86
2022/08/29 08:44:52;;;;;;;;;;;;;;;26.90;34.95;98614.09;4914359;29;19938;-84
2022/08/29 08:47:40;;;;;;;;;;;;;;;27.24;34.60;98617.16;4894071;29;19985;-85
2022/08/29 08:50:17;;;;;;;;;;;;;;;27.51;33.93;98625.63;4911770;29;19931;-86
2022/08/29 08:52:53;;;;;;;;;;;;;;;27.56;33.95;98612.25;4926285;29;19974;-86
2022/08/29 08:55:28;;;;;;;;;;;;;;;27.71;33.83;98638.28;4907111;29;20350;-88
2022/08/29 08:58:15;;;;;;;;;;;;;;;27.62;33.37;98602.47;4902256;29;19956;-84
2022/08/29 09:00:48;;;;;;;;;;;;;;;27.20;33.99;98644.81;4903609;29;19937;-86
2022/08/29 09:03:35;;;;;;;;;;;;;;;26.63;34.49;98643.53;4915965;29;19931;-86
2022/08/29 09:06:03;;;;;;;;;;;;;;;26.12;35.31;98613.84;4911601;29;19938;-86
2022/08/29 09:08:34;;;;;;;;;;;;;;;26.07;35.32;98618.84;4904889;29;20057;-85
2022/08/29 09:11:02;;;;;;;;;;;;;;;26.27;35.59;98630.78;4933275;29;19937;-84
2022/08/29 09:13:34;;;;;;;;;;;;;;;26.13;35.46;98631.22;4933850;29;19931;-84
2022/08/29 09:16:04;;;;;;;;;;;;;;;26.04;35.69;98636.16;4911194;29;19938;-84
2022/08/29 09:18:35;;;;;;;;;;;;;;;25.77;35.89;98641.34;4916035;29;19935;-85
2022/08/29 09:21:03;;;;;;;;;;;;;;;25.38;36.59;98632.00;4916815;29;20395;-84
2022/08/29 09:24:02;;;;;;;;;;;;;;;25.83;36.35;98631.66;4916481;29;19931;-86
2022/08/29 09:26:34;;;;;;;;;;;;;;;26.97;34.90;98624.53;4902798;29;19938;-87
2022/08/29 09:29:02;;;;;;;;;;;;;;;28.21;33.22;98646.72;4932838;29;20025;-87
2022/08/29 09:31:33;;;;;;;;;;;;;;;28.80;32.35;98633.38;4913225;29;19931;-88
2022/08/29 09:37:41;;;;;;;;;;;;;;;29.96;30.25;98623.25;4929291;29;19931;-86
2022/08/29 09:40:12;;;;;;;;;;;;;;;29.69;30.11;98664.28;4899435;29;20022;-87
2022/08/29 09:42:46;;;;;;;;;;;;;;;29.67;30.57;98636.06;4907902;29;20007;-86
2022/08/29 09:45:16;;;;;;;;;;;;;;;30.24;29.82;98617.16;4913924;29;20047;-87
2022/08/29 09:47:54;;;;;;;;;;;;;;;30.34;29.86;98619.22;4902807;29;20070;-87
2022/08/29 09:50:25;;;;;;;;;;;;;;;30.03;30.36;98634.44;4901459;29;20390;-86
2022/08/29 09:52:55;;;;;;;;;;;;;;;30.49;29.49;98666.63;4917918;29;19934;-84
2022/08/29 09:55:33;;;;;;;;;;;;;;;29.88;30.24;98638.25;4918222;29;19935;-86
2022/08/29 09:58:04;;;;;;;;;;;;;;;28.80;31.98;98658.34;4574212;28;9999911;-84
2022/08/29 10:00:36;;;;;;;;;;;;;;;28.18;32.77;98664.91;4893163;29;19935;-86
2022/08/29 10:03:05;;;;;;;;;;;;;;;28.31;32.76;98669.09;4895937;29;19939;-87
2022/08/29 10:05:40;;;;;;;;;;;;;;;29.14;31.70;98648.13;4911768;29;19938;-86
2022/08/29 10:08:27;;;;;;;;;;;;;;;29.14;31.63;98662.00;4917065;29;19935;-88
2022/08/29 10:10:55;;;;;;;;;;;;;;;29.13;31.90;98649.31;4882147;29;19950;-87
2022/08/29 10:13:23;;;;;;;;;;;;;;;29.62;31.48;98667.75;4932336;29;20357;-86
2022/08/29 10:15:57;;;;;;;;;;;;;;;29.69;31.43;98673.44;4902364;29;20358;-88
2022/08/29 10:18:27;;;;;;;;;;;;;;;29.97;31.05;98638.75;4930201;29;19978;-87
2022/08/29 10:21:13;;;;;;;;;;;;;;;30.39;30.77;98654.25;4922680;29;20422;-87
2022/08/29 10:24:16;;;;;;;;;;;;;;;30.27;31.00;98643.41;4916611;29;20402;-86
2022/08/29 10:26:57;;;;;;;;;;;;;;;29.84;31.59;98660.47;4887434;29;20088;-87
2022/08/29 10:29:39;;;;;;;;;;;;;;;29.97;31.70;98661.00;4920311;29;19935;-85
2022/08/29 10:32:25;;;;;;;;;;;;;;;29.60;31.63;98695.94;4899530;29;19930;-85
2022/08/29 10:34:52;;;;;;;;;;;;;;;28.83;32.76;98661.16;4931476;29;19949;-87
2022/08/29 10:37:27;;;;;;;;;;;;;;;27.31;35.33;98667.19;4933705;29;19946;-86
2022/08/29 10:40:00;;;;;;;;;;;;;;;26.93;35.95;98681.78;4908893;29;20410;-87
2022/08/29 10:42:28;;;;;;;;;;;;;;;28.42;34.29;98647.03;4926505;29;19931;-85
2022/08/29 10:45:21;;;;;;;;;;;;;;;29.18;32.98;98660.09;4923832;29;20058;-85
2022/08/29 10:47:52;;;;;;;;;;;;;;;29.18;32.57;98679.53;4838178;29;19933;-86
2022/08/29 10:50:26;;;;;;;;;;;;;;;28.76;33.40;98660.25;4821832;29;19933;-87
2022/08/29 10:53:17;;;;;;;;;;;;;;;27.70;35.45;98689.34;4813073;29;21377;-87
2022/08/29 10:55:44;;;;;;;;;;;;;;;27.11;36.83;98668.31;4827276;29;19943;-88
2022/08/29 10:58:18;;;;;;;;;;;;;;;26.50;38.93;98717.50;4838037;29;20392;-87
2022/08/29 11:00:46;;;;;;;;;;;;;;;26.05;39.97;98712.41;4839548;29;19976;-87
2022/08/29 11:03:30;;;;;;;;;;;;;;;25.45;41.24;98691.00;4840709;29;20009;-88
2022/08/29 11:06:00;;;;;;;;;;;;;;;25.22;42.64;98718.38;4822818;29;20076;-88
2022/08/29 11:08:32;;;;;;;;;;;;;;;25.16;42.37;98716.97;4819261;29;19933;-88
2022/08/29 11:11:02;;;;;;;;;;;;;;;25.46;41.47;98703.66;4809536;29;19970;-89
2022/08/29 11:13:40;;;;;;;;;;;;;;;25.46;41.74;98720.22;4820187;29;19940;-87
2022/08/29 11:16:09;;;;;;;;;;;;;;;25.48;41.20;98728.97;4793097;29;20115;-87
2022/08/29 11:18:40;;;;;;;;;;;;;;;25.34;40.88;98720.28;4820045;29;19956;-88
2022/08/29 11:21:19;;;;;;;;;;;;;;;25.14;41.29;98701.88;4820424;29;20058;-88
2022/08/29 11:23:47;;;;;;;;;;;;;;;26.43;39.43;98717.31;4797601;29;19932;-87
2022/08/29 11:26:27;;;;;;;;;;;;;;;27.60;37.25;98726.78;4910530;29;20397;-88
2022/08/29 11:29:10;;;;;;;;;;;;;;;27.17;38.03;98700.13;4877253;29;20050;-87
2022/08/29 11:31:47;;;;;;;;;;;;;;;28.00;36.43;98720.03;4896679;29;20386;-87
2022/08/29 11:34:37;;;;;;;;;;;;;;;28.87;35.20;98717.56;4900683;29;19935;-87
2022/08/29 11:37:24;;;;;;;;;;;;;;;29.57;34.48;98682.00;4908010;29;19983;-87
2022/08/29 11:39:56;;;;;;;;;;;;;;;29.49;34.15;98703.34;4921433;29;19931;-87
2022/08/29 11:42:34;;;;;;;;;;;;;;;28.82;35.10;98737.34;4915506;29;19931;-87
2022/08/29 11:45:22;;;;;;;;;;;;;;;27.61;37.30;98725.59;4915081;29;20326;-87
2022/08/29 11:48:00;;;;;;;;;;;;;;;28.15;36.73;98725.84;4907599;29;20003;-87
2022/08/29 11:50:37;;;;;;;;;;;;;;;27.60;37.94;98723.19;4915404;29;19976;-87
2022/08/29 11:53:07;;;;;;;;;;;;;;;28.50;36.60;98753.47;4912761;29;19931;-88
2022/08/29 11:55:34;;;;;;;;;;;;;;;28.17;37.15;98740.16;4915713;29;19981;-88
2022/08/29 11:58:26;;;;;;;;;;;;;;;28.79;36.75;98740.88;4907929;29;19931;-88
2022/08/29 12:00:57;;;;;;;;;;;;;;;28.47;36.79;98729.22;4910861;29;19961;-88
2022/08/29 12:03:33;;;;;;;;;;;;;;;28.60;37.19;98733.41;4898112;29;20414;-88
2022/08/29 12:06:04;;;;;;;;;;;;;;;28.40;37.15;98740.16;4910800;29;19932;-86
2022/08/29 12:08:35;;;;;;;;;;;;;;;28.05;37.69;98786.28;4909542;29;19931;-88
2022/08/29 12:11:05;;;;;;;;;;;;;;;27.37;38.88;98737.78;4914492;29;19930;-88
2022/08/29 12:13:47;;;;;;;;;;;;;;;26.43;41.50;98756.06;4915419;29;20437;-88
2022/08/29 12:16:22;;;;;;;;;;;;;;;26.01;42.28;98728.91;4915432;29;20026;-88
2022/08/29 12:18:58;;;;;;;;;;;;;;;26.07;42.43;98751.56;4898252;29;20178;-88
2022/08/29 12:21:31;;;;;;;;;;;;;;;25.94;42.44;98742.53;4899165;29;19938;-88
2022/08/29 12:24:06;;;;;;;;;;;;;;;26.02;42.54;98760.91;4901096;29;19931;-88
2022/08/29 12:26:38;;;;;;;;;;;;;;;25.84;42.88;98749.34;4930129;29;20461;-88
2022/08/29 12:29:17;;;;;;;;;;;;;;;26.19;42.27;98748.72;4930711;29;20387;-87
2022/08/29 12:31:58;;;;;;;;;;;;;;;26.11;42.75;98750.50;4910791;29;20002;-89
2022/08/29 12:34:52;;;;;;;;;;;;;;;25.97;42.84;98739.06;4916616;29;19931;-86
2022/08/29 12:37:27;;;;;;;;;;;;;;;25.74;43.12;98755.38;4923874;29;19941;-88
2022/08/29 12:40:00;;;;;;;;;;;;;;;25.54;43.50;98776.50;4930235;29;19934;-87
2022/08/29 12:42:35;;;;;;;;;;;;;;;25.40;43.17;98771.38;4913446;29;19931;-87
2022/08/29 12:45:12;;;;;;;;;;;;;;;25.21;43.99;98791.28;4923078;29;20278;-88
2022/08/29 12:47:45;;;;;;;;;;;;;;;24.93;44.35;98765.53;4929241;29;20334;-91
2022/08/29 12:50:34;;;;;;;;;;;;;;;24.83;44.80;98764.81;4918882;29;19931;-86
2022/08/29 12:53:11;;;;;;;;;;;;;;;25.20;44.40;98761.28;4930049;29;19938;-91
2022/08/29 12:55:40;;;;;;;;;;;;;;;25.00;44.53;98758.28;4894651;29;20302;-88
2022/08/29 12:58:08;;;;;;;;;;;;;;;24.92;44.66;98753.69;4887847;29;19935;-87
2022/08/29 13:00:35;;;;;;;;;;;;;;;25.04;44.55;98756.44;4897548;29;20382;-86
2022/08/29 13:03:16;;;;;;;;;;;;;;;24.87;44.72;98749.19;4928289;29;19966;-87
2022/08/29 13:06:08;;;;;;;;;;;;;;;24.45;46.08;98770.66;4923489;29;20014;-87
2022/08/29 13:08:39;;;;;;;;;;;;;;;24.51;45.69;98774.81;4927505;29;19979;-88
2022/08/29 13:11:17;;;;;;;;;;;;;;;24.57;45.59;98767.94;4928758;29;19974;-87
2022/08/29 13:13:45;;;;;;;;;;;;;;;24.44;45.96;98747.78;4897284;29;19935;-89
2022/08/29 13:16:27;;;;;;;;;;;;;;;24.34;46.51;98763.97;4896275;29;20328;-87
2022/08/29 13:18:56;;;;;;;;;;;;;;;24.51;46.72;98758.28;4925262;29;19934;-89